sensor_id;sensor_type;location;lat;lon;timestamp;P1;durP1;ratioP1;P2;durP2;ratioP2
8526;SDS011;4301;48.362;8.478;2022-09-03T00:01:32;4.87;;;4.47;;
8526;SDS011;4301;48.362;8.478;2022-09-03T00:04:04;4.47;;;4.13;;
8526;SDS011;4301;48.362;8.478;2022-09-03T00:06:42;4.67;;;4.27;;
8526;SDS011;4301;48.362;8.478;2022-09-03T00:09:16;4.90;;;4.40;;
8526;SDS011;4301;48.362;8.478;2022-09-03T00:11:50;4.80;;;4.30;;
8526;SDS011;4301;48.362;8.478;2022-09-03T00:14:24;4.53;;;4.13;;
8526;SDS011;4301;48.362;8.478;2022-09-03T00:16:58;4.87;;;4.23;;
8526;SDS011;4301;48.362;8.478;2022-09-03T00:19:31;4.90;;;4.40;;
8526;SDS011;4301;48.362;8.478;2022-09-03T00:22:06;4.77;;;4.30;;
8526;SDS011;4301;48.362;8.478;2022-09-03T00:24:38;5.13;;;4.63;;
8526;SDS011;4301;48.362;8.478;2022-09-03T00:27:10;5.23;;;4.70;;
8526;SDS011;4301;48.362;8.478;2022-09-03T00:29:42;5.70;;;4.90;;
8526;SDS011;4301;48.362;8.478;2022-09-03T00:32:15;5.43;;;4.60;;
8526;SDS011;4301;48.362;8.478;2022-09-03T00:34:47;4.80;;;4.50;;
8526;SDS011;4301;48.362;8.478;2022-09-03T00:37:20;5.20;;;4.70;;
8526;SDS011;4301;48.362;8.478;2022-09-03T00:39:48;4.33;;;3.93;;
8526;SDS011;4301;48.362;8.478;2022-09-03T00:42:23;4.90;;;4.37;;
8526;SDS011;4301;48.362;8.478;2022-09-03T00:45:07;5.10;;;4.60;;
8526;SDS011;4301;48.362;8.478;2022-09-03T00:47:56;5.93;;;5.17;;
8526;SDS011;4301;48.362;8.478;2022-09-03T00:50:39;5.10;;;4.67;;
8526;SDS011;4301;48.362;8.478;2022-09-03T00:53:19;5.57;;;5.00;;
8526;SDS011;4301;48.362;8.478;2022-09-03T00:55:55;5.37;;;4.57;;
8526;SDS011;4301;48.362;8.478;2022-09-03T00:58:31;5.60;;;4.73;;
8526;SDS011;4301;48.362;8.478;2022-09-03T01:01:11;5.00;;;4.50;;
8526;SDS011;4301;48.362;8.478;2022-09-03T01:03:42;5.23;;;4.83;;
8526;SDS011;4301;48.362;8.478;2022-09-03T01:06:17;6.30;;;5.70;;
8526;SDS011;4301;48.362;8.478;2022-09-03T01:08:58;6.20;;;5.00;;
8526;SDS011;4301;48.362;8.478;2022-09-03T01:11:37;5.20;;;4.80;;
8526;SDS011;4301;48.362;8.478;2022-09-03T01:14:16;4.97;;;4.57;;
8526;SDS011;4301;48.362;8.478;2022-09-03T01:17:04;5.30;;;4.80;;
8526;SDS011;4301;48.362;8.478;2022-09-03T01:19:48;5.40;;;4.90;;
8526;SDS011;4301;48.362;8.478;2022-09-03T01:22:35;6.13;;;5.17;;
8526;SDS011;4301;48.362;8.478;2022-09-03T01:25:25;4.27;;;3.97;;
8526;SDS011;4301;48.362;8.478;2022-09-03T01:28:12;4.97;;;4.50;;
8526;SDS011;4301;48.362;8.478;2022-09-03T01:30:48;5.17;;;4.77;;
8526;SDS011;4301;48.362;8.478;2022-09-03T01:33:23;5.83;;;4.20;;
8526;SDS011;4301;48.362;8.478;2022-09-03T01:35:58;4.77;;;4.47;;
8526;SDS011;4301;48.362;8.478;2022-09-03T01:38:37;6.50;;;4.60;;
8526;SDS011;4301;48.362;8.478;2022-09-03T01:41:10;5.13;;;4.73;;
8526;SDS011;4301;48.362;8.478;2022-09-03T01:44:11;4.90;;;4.60;;
8526;SDS011;4301;48.362;8.478;2022-09-03T01:46:47;4.63;;;4.30;;
8526;SDS011;4301;48.362;8.478;2022-09-03T01:49:22;4.87;;;4.40;;
8526;SDS011;4301;48.362;8.478;2022-09-03T01:51:54;5.93;;;5.10;;
8526;SDS011;4301;48.362;8.478;2022-09-03T01:54:31;5.80;;;4.90;;
8526;SDS011;4301;48.362;8.478;2022-09-03T01:57:27;4.93;;;4.53;;
8526;SDS011;4301;48.362;8.478;2022-09-03T02:00:14;5.37;;;4.97;;
8526;SDS011;4301;48.362;8.478;2022-09-03T02:02:45;5.60;;;5.10;;
8526;SDS011;4301;48.362;8.478;2022-09-03T02:05:17;4.87;;;4.57;;
8526;SDS011;4301;48.362;8.478;2022-09-03T02:07:47;5.10;;;4.70;;
8526;SDS011;4301;48.362;8.478;2022-09-03T02:10:17;6.30;;;4.90;;
8526;SDS011;4301;48.362;8.478;2022-09-03T02:12:47;4.57;;;4.23;;
8526;SDS011;4301;48.362;8.478;2022-09-03T02:15:20;5.10;;;4.60;;
8526;SDS011;4301;48.362;8.478;2022-09-03T02:17:49;4.70;;;4.30;;
8526;SDS011;4301;48.362;8.478;2022-09-03T02:20:21;5.30;;;4.33;;
8526;SDS011;4301;48.362;8.478;2022-09-03T02:22:51;4.73;;;4.33;;
8526;SDS011;4301;48.362;8.478;2022-09-03T02:25:19;4.43;;;4.13;;
8526;SDS011;4301;48.362;8.478;2022-09-03T02:27:49;4.70;;;4.30;;
8526;SDS011;4301;48.362;8.478;2022-09-03T02:30:18;5.40;;;5.00;;
8526;SDS011;4301;48.362;8.478;2022-09-03T02:32:46;5.60;;;5.13;;
8526;SDS011;4301;48.362;8.478;2022-09-03T02:35:13;4.93;;;4.53;;
8526;SDS011;4301;48.362;8.478;2022-09-03T02:37:41;6.67;;;4.80;;
8526;SDS011;4301;48.362;8.478;2022-09-03T02:40:08;5.40;;;4.90;;
8526;SDS011;4301;48.362;8.478;2022-09-03T02:42:36;5.30;;;4.80;;
8526;SDS011;4301;48.362;8.478;2022-09-03T02:45:06;5.63;;;5.10;;
8526;SDS011;4301;48.362;8.478;2022-09-03T02:47:44;5.10;;;4.70;;
8526;SDS011;4301;48.362;8.478;2022-09-03T02:50:15;5.07;;;4.67;;
8526;SDS011;4301;48.362;8.478;2022-09-03T02:52:42;6.27;;;4.90;;
8526;SDS011;4301;48.362;8.478;2022-09-03T02:55:10;5.73;;;4.97;;
8526;SDS011;4301;48.362;8.478;2022-09-03T02:57:38;5.33;;;4.93;;
8526;SDS011;4301;48.362;8.478;2022-09-03T03:00:06;5.70;;;5.20;;
8526;SDS011;4301;48.362;8.478;2022-09-03T03:02:34;6.00;;;5.50;;
8526;SDS011;4301;48.362;8.478;2022-09-03T03:05:03;5.73;;;5.27;;
8526;SDS011;4301;48.362;8.478;2022-09-03T03:07:33;4.63;;;4.20;;
8526;SDS011;4301;48.362;8.478;2022-09-03T03:10:04;5.70;;;5.13;;
8526;SDS011;4301;48.362;8.478;2022-09-03T03:12:32;5.03;;;4.63;;
8526;SDS011;4301;48.362;8.478;2022-09-03T03:14:59;5.17;;;4.77;;
8526;SDS011;4301;48.362;8.478;2022-09-03T03:17:27;5.57;;;4.87;;
8526;SDS011;4301;48.362;8.478;2022-09-03T03:19:55;5.80;;;5.17;;
8526;SDS011;4301;48.362;8.478;2022-09-03T03:22:24;6.33;;;5.73;;
8526;SDS011;4301;48.362;8.478;2022-09-03T03:24:51;6.20;;;5.47;;
8526;SDS011;4301;48.362;8.478;2022-09-03T03:27:21;5.43;;;5.03;;
8526;SDS011;4301;48.362;8.478;2022-09-03T03:29:48;4.80;;;4.50;;
8526;SDS011;4301;48.362;8.478;2022-09-03T03:32:16;5.47;;;4.97;;
8526;SDS011;4301;48.362;8.478;2022-09-03T03:34:43;4.70;;;4.30;;
8526;SDS011;4301;48.362;8.478;2022-09-03T03:37:10;6.17;;;4.67;;
8526;SDS011;4301;48.362;8.478;2022-09-03T03:39:39;5.23;;;4.83;;
8526;SDS011;4301;48.362;8.478;2022-09-03T03:42:06;5.57;;;4.93;;
8526;SDS011;4301;48.362;8.478;2022-09-03T03:44:33;5.23;;;4.83;;
8526;SDS011;4301;48.362;8.478;2022-09-03T03:47:01;5.23;;;4.83;;
8526;SDS011;4301;48.362;8.478;2022-09-03T03:49:30;6.07;;;5.10;;
8526;SDS011;4301;48.362;8.478;2022-09-03T03:51:57;5.63;;;5.23;;
8526;SDS011;4301;48.362;8.478;2022-09-03T03:54:24;6.30;;;5.33;;
8526;SDS011;4301;48.362;8.478;2022-09-03T03:56:53;6.20;;;5.20;;
8526;SDS011;4301;48.362;8.478;2022-09-03T03:59:20;6.10;;;5.67;;
8526;SDS011;4301;48.362;8.478;2022-09-03T04:01:47;5.60;;;5.20;;
8526;SDS011;4301;48.362;8.478;2022-09-03T04:04:15;6.40;;;5.80;;
8526;SDS011;4301;48.362;8.478;2022-09-03T04:06:42;6.40;;;5.87;;
8526;SDS011;4301;48.362;8.478;2022-09-03T04:09:09;6.43;;;5.93;;
8526;SDS011;4301;48.362;8.478;2022-09-03T04:11:37;6.13;;;5.60;;
8526;SDS011;4301;48.362;8.478;2022-09-03T04:14:05;6.20;;;5.80;;
8526;SDS011;4301;48.362;8.478;2022-09-03T04:16:32;5.47;;;4.97;;
8526;SDS011;4301;48.362;8.478;2022-09-03T04:19:00;10.27;;;5.63;;
8526;SDS011;4301;48.362;8.478;2022-09-03T04:21:27;5.30;;;4.77;;
8526;SDS011;4301;48.362;8.478;2022-09-03T04:23:56;5.37;;;4.87;;
8526;SDS011;4301;48.362;8.478;2022-09-03T04:26:24;5.60;;;5.20;;
8526;SDS011;4301;48.362;8.478;2022-09-03T04:28:55;5.50;;;5.10;;
8526;SDS011;4301;48.362;8.478;2022-09-03T04:31:23;6.50;;;5.50;;
8526;SDS011;4301;48.362;8.478;2022-09-03T04:33:50;5.40;;;5.00;;
8526;SDS011;4301;48.362;8.478;2022-09-03T04:36:19;6.00;;;5.53;;
8526;SDS011;4301;48.362;8.478;2022-09-03T04:38:49;6.40;;;5.90;;
8526;SDS011;4301;48.362;8.478;2022-09-03T04:41:19;5.90;;;5.27;;
8526;SDS011;4301;48.362;8.478;2022-09-03T04:43:49;6.10;;;5.60;;
8526;SDS011;4301;48.362;8.478;2022-09-03T04:46:17;6.13;;;5.63;;
8526;SDS011;4301;48.362;8.478;2022-09-03T04:48:48;6.17;;;5.70;;
8526;SDS011;4301;48.362;8.478;2022-09-03T04:51:17;6.37;;;5.87;;
8526;SDS011;4301;48.362;8.478;2022-09-03T04:53:46;7.70;;;6.20;;
8526;SDS011;4301;48.362;8.478;2022-09-03T04:56:16;7.50;;;6.90;;
8526;SDS011;4301;48.362;8.478;2022-09-03T04:58:44;7.23;;;6.63;;
8526;SDS011;4301;48.362;8.478;2022-09-03T05:01:14;7.30;;;6.70;;
8526;SDS011;4301;48.362;8.478;2022-09-03T05:03:42;6.97;;;6.37;;
8526;SDS011;4301;48.362;8.478;2022-09-03T05:06:11;6.80;;;6.10;;
8526;SDS011;4301;48.362;8.478;2022-09-03T05:08:41;7.37;;;6.87;;
8526;SDS011;4301;48.362;8.478;2022-09-03T05:11:10;7.63;;;7.03;;
8526;SDS011;4301;48.362;8.478;2022-09-03T05:13:37;7.80;;;7.10;;
8526;SDS011;4301;48.362;8.478;2022-09-03T05:16:05;6.93;;;6.23;;
8526;SDS011;4301;48.362;8.478;2022-09-03T05:18:33;6.83;;;6.23;;
8526;SDS011;4301;48.362;8.478;2022-09-03T05:21:02;8.20;;;7.33;;
8526;SDS011;4301;48.362;8.478;2022-09-03T05:23:35;7.53;;;6.97;;
8526;SDS011;4301;48.362;8.478;2022-09-03T05:26:04;6.57;;;5.90;;
8526;SDS011;4301;48.362;8.478;2022-09-03T05:28:33;7.60;;;6.80;;
8526;SDS011;4301;48.362;8.478;2022-09-03T05:31:02;7.37;;;6.70;;
8526;SDS011;4301;48.362;8.478;2022-09-03T05:33:32;7.50;;;6.90;;
8526;SDS011;4301;48.362;8.478;2022-09-03T05:35:59;10.80;;;7.10;;
8526;SDS011;4301;48.362;8.478;2022-09-03T05:38:27;6.80;;;6.20;;
8526;SDS011;4301;48.362;8.478;2022-09-03T05:40:58;7.63;;;7.00;;
8526;SDS011;4301;48.362;8.478;2022-09-03T05:43:25;7.00;;;6.37;;
8526;SDS011;4301;48.362;8.478;2022-09-03T05:45:56;6.77;;;6.27;;
8526;SDS011;4301;48.362;8.478;2022-09-03T05:48:24;6.67;;;6.17;;
8526;SDS011;4301;48.362;8.478;2022-09-03T05:50:57;6.73;;;6.03;;
8526;SDS011;4301;48.362;8.478;2022-09-03T05:53:25;6.50;;;5.90;;
8526;SDS011;4301;48.362;8.478;2022-09-03T05:55:57;6.97;;;6.37;;
8526;SDS011;4301;48.362;8.478;2022-09-03T05:58:29;6.70;;;6.10;;
8526;SDS011;4301;48.362;8.478;2022-09-03T06:00:56;8.10;;;5.87;;
8526;SDS011;4301;48.362;8.478;2022-09-03T06:03:23;9.00;;;6.00;;
8526;SDS011;4301;48.362;8.478;2022-09-03T06:05:51;6.10;;;5.50;;
8526;SDS011;4301;48.362;8.478;2022-09-03T06:08:19;6.10;;;5.60;;
8526;SDS011;4301;48.362;8.478;2022-09-03T06:10:47;6.30;;;5.77;;
8526;SDS011;4301;48.362;8.478;2022-09-03T06:13:16;6.47;;;5.87;;
8526;SDS011;4301;48.362;8.478;2022-09-03T06:15:44;6.00;;;5.50;;
8526;SDS011;4301;48.362;8.478;2022-09-03T06:18:11;6.83;;;5.67;;
8526;SDS011;4301;48.362;8.478;2022-09-03T06:20:38;6.07;;;5.67;;
8526;SDS011;4301;48.362;8.478;2022-09-03T06:23:05;6.73;;;6.07;;
8526;SDS011;4301;48.362;8.478;2022-09-03T06:25:33;10.20;;;6.00;;
8526;SDS011;4301;48.362;8.478;2022-09-03T06:28:00;7.20;;;6.57;;
8526;SDS011;4301;48.362;8.478;2022-09-03T06:30:29;6.90;;;6.23;;
8526;SDS011;4301;48.362;8.478;2022-09-03T06:32:56;7.63;;;6.93;;
8526;SDS011;4301;48.362;8.478;2022-09-03T06:35:24;7.57;;;6.87;;
8526;SDS011;4301;48.362;8.478;2022-09-03T06:37:51;8.50;;;7.80;;
8526;SDS011;4301;48.362;8.478;2022-09-03T06:40:18;9.07;;;8.20;;
8526;SDS011;4301;48.362;8.478;2022-09-03T06:42:54;8.80;;;8.00;;
8526;SDS011;4301;48.362;8.478;2022-09-03T06:45:23;8.33;;;7.53;;
8526;SDS011;4301;48.362;8.478;2022-09-03T06:47:52;9.10;;;8.20;;
8526;SDS011;4301;48.362;8.478;2022-09-03T06:50:20;8.63;;;7.83;;
8526;SDS011;4301;48.362;8.478;2022-09-03T06:52:49;9.07;;;8.27;;
8526;SDS011;4301;48.362;8.478;2022-09-03T06:55:18;8.63;;;7.83;;
8526;SDS011;4301;48.362;8.478;2022-09-03T06:57:46;15.30;;;12.80;;
8526;SDS011;4301;48.362;8.478;2022-09-03T07:00:13;11.37;;;10.03;;
8526;SDS011;4301;48.362;8.478;2022-09-03T07:02:41;9.50;;;8.60;;
8526;SDS011;4301;48.362;8.478;2022-09-03T07:05:10;10.20;;;8.50;;
8526;SDS011;4301;48.362;8.478;2022-09-03T07:07:38;8.43;;;7.63;;
8526;SDS011;4301;48.362;8.478;2022-09-03T07:10:06;9.07;;;8.20;;
8526;SDS011;4301;48.362;8.478;2022-09-03T07:12:38;8.73;;;8.03;;
8526;SDS011;4301;48.362;8.478;2022-09-03T07:15:05;9.07;;;8.27;;
8526;SDS011;4301;48.362;8.478;2022-09-03T07:17:33;9.33;;;8.40;;
8526;SDS011;4301;48.362;8.478;2022-09-03T07:20:01;9.50;;;8.60;;
8526;SDS011;4301;48.362;8.478;2022-09-03T07:22:30;8.20;;;7.50;;
8526;SDS011;4301;48.362;8.478;2022-09-03T07:24:57;8.30;;;7.50;;
8526;SDS011;4301;48.362;8.478;2022-09-03T07:27:26;8.00;;;7.20;;
8526;SDS011;4301;48.362;8.478;2022-09-03T07:29:53;7.77;;;7.07;;
8526;SDS011;4301;48.362;8.478;2022-09-03T07:32:20;7.77;;;7.07;;
8526;SDS011;4301;48.362;8.478;2022-09-03T07:34:47;7.50;;;6.87;;
8526;SDS011;4301;48.362;8.478;2022-09-03T07:37:17;7.87;;;7.07;;
8526;SDS011;4301;48.362;8.478;2022-09-03T07:39:45;7.67;;;6.90;;
8526;SDS011;4301;48.362;8.478;2022-09-03T07:42:12;7.17;;;6.50;;
8526;SDS011;4301;48.362;8.478;2022-09-03T07:44:39;7.83;;;5.80;;
8526;SDS011;4301;48.362;8.478;2022-09-03T07:47:07;6.70;;;6.10;;
8526;SDS011;4301;48.362;8.478;2022-09-03T07:49:34;5.90;;;5.40;;
8526;SDS011;4301;48.362;8.478;2022-09-03T07:52:01;5.67;;;5.17;;
8526;SDS011;4301;48.362;8.478;2022-09-03T07:54:28;4.80;;;4.43;;
8526;SDS011;4301;48.362;8.478;2022-09-03T07:56:58;5.50;;;5.10;;
8526;SDS011;4301;48.362;8.478;2022-09-03T07:59:25;4.63;;;4.23;;
8526;SDS011;4301;48.362;8.478;2022-09-03T08:01:52;4.00;;;3.70;;
8526;SDS011;4301;48.362;8.478;2022-09-03T08:04:20;4.13;;;3.83;;
8526;SDS011;4301;48.362;8.478;2022-09-03T08:06:47;4.68;;;4.28;;
8526;SDS011;4301;48.362;8.478;2022-09-03T08:09:19;4.30;;;4.00;;
8526;SDS011;4301;48.362;8.478;2022-09-03T08:11:46;3.40;;;3.10;;
8526;SDS011;4301;48.362;8.478;2022-09-03T08:14:15;3.55;;;3.22;;
8526;SDS011;4301;48.362;8.478;2022-09-03T08:16:43;3.50;;;3.30;;
8526;SDS011;4301;48.362;8.478;2022-09-03T08:19:12;2.85;;;2.75;;
8526;SDS011;4301;48.362;8.478;2022-09-03T08:21:40;3.20;;;3.00;;
8526;SDS011;4301;48.362;8.478;2022-09-03T08:24:07;2.58;;;2.47;;
8526;SDS011;4301;48.362;8.478;2022-09-03T08:26:36;2.63;;;2.42;;
8526;SDS011;4301;48.362;8.478;2022-09-03T08:29:04;2.20;;;2.10;;
8526;SDS011;4301;48.362;8.478;2022-09-03T08:31:33;2.28;;;2.17;;
8526;SDS011;4301;48.362;8.478;2022-09-03T08:34:02;2.00;;;1.90;;
8526;SDS011;4301;48.362;8.478;2022-09-03T08:36:32;2.03;;;1.92;;
8526;SDS011;4301;48.362;8.478;2022-09-03T08:39:02;2.15;;;2.00;;
8526;SDS011;4301;48.362;8.478;2022-09-03T08:41:35;1.98;;;1.88;;
8526;SDS011;4301;48.362;8.478;2022-09-03T08:44:19;2.25;;;2.10;;
8526;SDS011;4301;48.362;8.478;2022-09-03T08:46:52;2.58;;;2.38;;
8526;SDS011;4301;48.362;8.478;2022-09-03T08:49:25;2.60;;;2.40;;
8526;SDS011;4301;48.362;8.478;2022-09-03T08:51:56;2.38;;;2.28;;
8526;SDS011;4301;48.362;8.478;2022-09-03T08:54:28;2.42;;;2.33;;
8526;SDS011;4301;48.362;8.478;2022-09-03T08:56:58;2.25;;;2.15;;
8526;SDS011;4301;48.362;8.478;2022-09-03T08:59:28;2.20;;;2.10;;
8526;SDS011;4301;48.362;8.478;2022-09-03T09:01:58;3.67;;;2.67;;
8526;SDS011;4301;48.362;8.478;2022-09-03T09:04:38;2.20;;;2.10;;
8526;SDS011;4301;48.362;8.478;2022-09-03T09:07:20;2.33;;;2.22;;
8526;SDS011;4301;48.362;8.478;2022-09-03T09:09:55;2.30;;;2.20;;
8526;SDS011;4301;48.362;8.478;2022-09-03T09:12:32;3.22;;;2.28;;
8526;SDS011;4301;48.362;8.478;2022-09-03T09:15:04;2.63;;;2.42;;
8526;SDS011;4301;48.362;8.478;2022-09-03T09:17:42;2.67;;;2.47;;
8526;SDS011;4301;48.362;8.478;2022-09-03T09:20:17;2.38;;;2.28;;
8526;SDS011;4301;48.362;8.478;2022-09-03T09:22:51;2.22;;;2.13;;
8526;SDS011;4301;48.362;8.478;2022-09-03T09:25:22;2.40;;;2.20;;
8526;SDS011;4301;48.362;8.478;2022-09-03T09:27:53;2.25;;;2.15;;
8526;SDS011;4301;48.362;8.478;2022-09-03T09:30:24;2.78;;;2.13;;
8526;SDS011;4301;48.362;8.478;2022-09-03T09:32:53;3.00;;;2.30;;
8526;SDS011;4301;48.362;8.478;2022-09-03T09:35:20;2.13;;;2.03;;
8526;SDS011;4301;48.362;8.478;2022-09-03T09:37:48;2.20;;;2.10;;
8526;SDS011;4301;48.362;8.478;2022-09-03T09:40:23;2.20;;;2.10;;
8526;SDS011;4301;48.362;8.478;2022-09-03T09:43:01;2.33;;;2.13;;
8526;SDS011;4301;48.362;8.478;2022-09-03T09:45:35;2.15;;;2.05;;
8526;SDS011;4301;48.362;8.478;2022-09-03T09:48:09;2.25;;;2.15;;
8526;SDS011;4301;48.362;8.478;2022-09-03T09:50:44;2.40;;;2.30;;
8526;SDS011;4301;48.362;8.478;2022-09-03T09:53:11;2.40;;;2.30;;
8526;SDS011;4301;48.362;8.478;2022-09-03T09:55:52;2.25;;;2.15;;
8526;SDS011;4301;48.362;8.478;2022-09-03T09:58:20;2.33;;;2.22;;
8526;SDS011;4301;48.362;8.478;2022-09-03T10:00:55;1.98;;;1.88;;
8526;SDS011;4301;48.362;8.478;2022-09-03T10:03:26;2.42;;;2.13;;
8526;SDS011;4301;48.362;8.478;2022-09-03T10:06:05;2.40;;;2.30;;
8526;SDS011;4301;48.362;8.478;2022-09-03T10:08:51;2.38;;;2.17;;
8526;SDS011;4301;48.362;8.478;2022-09-03T10:11:20;2.13;;;2.03;;
8526;SDS011;4301;48.362;8.478;2022-09-03T10:13:51;2.05;;;1.95;;
8526;SDS011;4301;48.362;8.478;2022-09-03T10:16:24;2.42;;;2.05;;
8526;SDS011;4301;48.362;8.478;2022-09-03T10:18:56;2.33;;;2.22;;
8526;SDS011;4301;48.362;8.478;2022-09-03T10:21:31;2.55;;;2.35;;
8526;SDS011;4301;48.362;8.478;2022-09-03T10:24:24;2.20;;;2.10;;
8526;SDS011;4301;48.362;8.478;2022-09-03T10:26:57;2.45;;;2.25;;
8526;SDS011;4301;48.362;8.478;2022-09-03T10:29:27;2.50;;;2.40;;
8526;SDS011;4301;48.362;8.478;2022-09-03T10:32:00;2.50;;;2.40;;
8526;SDS011;4301;48.362;8.478;2022-09-03T10:34:37;2.93;;;2.73;;
8526;SDS011;4301;48.362;8.478;2022-09-03T10:37:12;2.77;;;2.57;;
8526;SDS011;4301;48.362;8.478;2022-09-03T10:39:49;2.35;;;2.25;;
8526;SDS011;4301;48.362;8.478;2022-09-03T10:42:31;2.20;;;2.10;;
8526;SDS011;4301;48.362;8.478;2022-09-03T10:45:07;2.67;;;2.47;;
8526;SDS011;4301;48.362;8.478;2022-09-03T10:47:51;2.30;;;2.20;;
8526;SDS011;4301;48.362;8.478;2022-09-03T10:50:45;2.20;;;2.10;;
8526;SDS011;4301;48.362;8.478;2022-09-03T10:53:26;2.50;;;2.30;;
8526;SDS011;4301;48.362;8.478;2022-09-03T10:56:04;2.50;;;2.40;;
8526;SDS011;4301;48.362;8.478;2022-09-03T10:58:38;2.50;;;2.30;;
8526;SDS011;4301;48.362;8.478;2022-09-03T11:01:15;2.67;;;2.47;;
8526;SDS011;4301;48.362;8.478;2022-09-03T11:03:51;3.50;;;2.47;;
8526;SDS011;4301;48.362;8.478;2022-09-03T11:06:34;2.67;;;2.50;;
8526;SDS011;4301;48.362;8.478;2022-09-03T11:09:10;3.70;;;2.30;;
8526;SDS011;4301;48.362;8.478;2022-09-03T11:11:44;2.23;;;2.10;;
8526;SDS011;4301;48.362;8.478;2022-09-03T11:14:15;2.10;;;1.60;;
8526;SDS011;4301;48.362;8.478;2022-09-03T11:16:51;1.90;;;1.80;;
8526;SDS011;4301;48.362;8.478;2022-09-03T11:19:25;1.70;;;1.50;;
8526;SDS011;4301;48.362;8.478;2022-09-03T11:21:59;4.60;;;1.20;;
8526;SDS011;4301;48.362;8.478;2022-09-03T11:24:28;1.20;;;1.10;;
8526;SDS011;4301;48.362;8.478;2022-09-03T11:27:01;1.47;;;1.30;;
8526;SDS011;4301;48.362;8.478;2022-09-03T11:29:40;1.70;;;1.40;;
8526;SDS011;4301;48.362;8.478;2022-09-03T11:32:16;1.30;;;1.20;;
8526;SDS011;4301;48.362;8.478;2022-09-03T11:34:48;1.30;;;1.20;;
8526;SDS011;4301;48.362;8.478;2022-09-03T11:37:21;1.23;;;1.13;;
8526;SDS011;4301;48.362;8.478;2022-09-03T11:39:56;1.40;;;1.30;;
8526;SDS011;4301;48.362;8.478;2022-09-03T11:42:30;1.10;;;1.10;;
8526;SDS011;4301;48.362;8.478;2022-09-03T11:45:14;1.80;;;1.30;;
8526;SDS011;4301;48.362;8.478;2022-09-03T11:47:47;3.10;;;1.33;;
8526;SDS011;4301;48.362;8.478;2022-09-03T11:50:17;1.17;;;1.10;;
8526;SDS011;4301;48.362;8.478;2022-09-03T11:52:48;1.40;;;1.30;;
8526;SDS011;4301;48.362;8.478;2022-09-03T11:55:27;1.07;;;1.07;;
8526;SDS011;4301;48.362;8.478;2022-09-03T11:57:57;1.70;;;1.37;;
8526;SDS011;4301;48.362;8.478;2022-09-03T12:00:35;4.73;;;3.10;;
8526;SDS011;4301;48.362;8.478;2022-09-03T12:03:04;5.40;;;3.37;;
8526;SDS011;4301;48.362;8.478;2022-09-03T12:05:34;5.47;;;3.63;;
8526;SDS011;4301;48.362;8.478;2022-09-03T12:08:21;5.23;;;3.27;;
8526;SDS011;4301;48.362;8.478;2022-09-03T12:11:10;2.30;;;2.10;;
8526;SDS011;4301;48.362;8.478;2022-09-03T12:13:53;3.53;;;1.80;;
8526;SDS011;4301;48.362;8.478;2022-09-03T12:16:31;2.10;;;1.90;;
8526;SDS011;4301;48.362;8.478;2022-09-03T12:19:19;1.53;;;1.30;;
8526;SDS011;4301;48.362;8.478;2022-09-03T12:21:54;1.27;;;1.27;;
8526;SDS011;4301;48.362;8.478;2022-09-03T12:24:23;1.13;;;1.13;;
8526;SDS011;4301;48.362;8.478;2022-09-03T12:26:57;0.90;;;0.90;;
8526;SDS011;4301;48.362;8.478;2022-09-03T12:29:25;1.00;;;1.00;;
8526;SDS011;4301;48.362;8.478;2022-09-03T12:31:54;1.00;;;1.00;;
8526;SDS011;4301;48.362;8.478;2022-09-03T12:34:22;1.55;;;0.95;;
8526;SDS011;4301;48.362;8.478;2022-09-03T12:36:51;1.40;;;1.30;;
8526;SDS011;4301;48.362;8.478;2022-09-03T12:39:20;2.45;;;1.08;;
8526;SDS011;4301;48.362;8.478;2022-09-03T12:41:53;1.08;;;1.08;;
8526;SDS011;4301;48.362;8.478;2022-09-03T12:44:25;0.95;;;0.95;;
8526;SDS011;4301;48.362;8.478;2022-09-03T12:47:02;2.00;;;1.00;;
8526;SDS011;4301;48.362;8.478;2022-09-03T12:49:35;1.25;;;1.15;;
8526;SDS011;4301;48.362;8.478;2022-09-03T12:52:06;1.10;;;1.10;;
8526;SDS011;4301;48.362;8.478;2022-09-03T12:54:41;1.20;;;1.10;;
8526;SDS011;4301;48.362;8.478;2022-09-03T12:57:13;2.05;;;1.08;;
8526;SDS011;4301;48.362;8.478;2022-09-03T12:59:45;1.35;;;1.10;;
8526;SDS011;4301;48.362;8.478;2022-09-03T13:02:18;1.08;;;1.00;;
8526;SDS011;4301;48.362;8.478;2022-09-03T13:04:49;1.00;;;1.00;;
8526;SDS011;4301;48.362;8.478;2022-09-03T13:07:20;1.27;;;1.00;;
8526;SDS011;4301;48.362;8.478;2022-09-03T13:09:59;1.30;;;1.30;;
8526;SDS011;4301;48.362;8.478;2022-09-03T13:12:32;1.00;;;1.00;;
8526;SDS011;4301;48.362;8.478;2022-09-03T13:15:07;1.05;;;1.05;;
8526;SDS011;4301;48.362;8.478;2022-09-03T13:17:42;1.20;;;1.20;;
8526;SDS011;4301;48.362;8.478;2022-09-03T13:20:23;1.10;;;1.10;;
8526;SDS011;4301;48.362;8.478;2022-09-03T13:23:01;1.10;;;1.10;;
8526;SDS011;4301;48.362;8.478;2022-09-03T13:25:55;1.20;;;1.10;;
8526;SDS011;4301;48.362;8.478;2022-09-03T13:28:33;1.02;;;1.00;;
8526;SDS011;4301;48.362;8.478;2022-09-03T13:31:09;1.17;;;1.17;;
8526;SDS011;4301;48.362;8.478;2022-09-03T13:33:52;1.25;;;1.25;;
8526;SDS011;4301;48.362;8.478;2022-09-03T13:36:25;1.30;;;1.30;;
8526;SDS011;4301;48.362;8.478;2022-09-03T13:38:57;1.20;;;1.20;;
8526;SDS011;4301;48.362;8.478;2022-09-03T13:41:32;1.35;;;1.33;;
8526;SDS011;4301;48.362;8.478;2022-09-03T13:44:07;1.10;;;1.00;;
8526;SDS011;4301;48.362;8.478;2022-09-03T13:46:42;0.95;;;0.95;;
8526;SDS011;4301;48.362;8.478;2022-09-03T13:49:15;1.02;;;0.93;;
8526;SDS011;4301;48.362;8.478;2022-09-03T13:52:16;0.90;;;0.90;;
8526;SDS011;4301;48.362;8.478;2022-09-03T13:54:50;1.20;;;1.20;;
8526;SDS011;4301;48.362;8.478;2022-09-03T13:57:24;0.80;;;0.80;;
8526;SDS011;4301;48.362;8.478;2022-09-03T14:00:01;0.90;;;0.90;;
8526;SDS011;4301;48.362;8.478;2022-09-03T14:02:32;0.77;;;0.77;;
8526;SDS011;4301;48.362;8.478;2022-09-03T14:05:18;0.90;;;0.90;;
8526;SDS011;4301;48.362;8.478;2022-09-03T14:08:04;1.05;;;0.90;;
8526;SDS011;4301;48.362;8.478;2022-09-03T14:10:43;0.80;;;0.80;;
8526;SDS011;4301;48.362;8.478;2022-09-03T14:13:20;0.80;;;0.80;;
8526;SDS011;4301;48.362;8.478;2022-09-03T14:15:59;0.85;;;0.85;;
8526;SDS011;4301;48.362;8.478;2022-09-03T14:18:34;0.85;;;0.80;;
8526;SDS011;4301;48.362;8.478;2022-09-03T14:21:09;0.77;;;0.77;;
8526;SDS011;4301;48.362;8.478;2022-09-03T14:23:43;1.00;;;1.00;;
8526;SDS011;4301;48.362;8.478;2022-09-03T14:26:15;0.85;;;0.85;;
8526;SDS011;4301;48.362;8.478;2022-09-03T14:28:45;0.95;;;0.90;;
8526;SDS011;4301;48.362;8.478;2022-09-03T14:31:20;0.80;;;0.80;;
8526;SDS011;4301;48.362;8.478;2022-09-03T14:33:57;0.80;;;0.80;;
8526;SDS011;4301;48.362;8.478;2022-09-03T14:36:31;0.75;;;0.75;;
8526;SDS011;4301;48.362;8.478;2022-09-03T14:39:18;1.30;;;1.27;;
8526;SDS011;4301;48.362;8.478;2022-09-03T14:42:05;0.90;;;0.90;;
8526;SDS011;4301;48.362;8.478;2022-09-03T14:44:59;0.82;;;0.82;;
8526;SDS011;4301;48.362;8.478;2022-09-03T14:47:51;1.20;;;1.10;;
8526;SDS011;4301;48.362;8.478;2022-09-03T14:50:33;1.15;;;1.15;;
8526;SDS011;4301;48.362;8.478;2022-09-03T14:53:25;1.10;;;1.10;;
8526;SDS011;4301;48.362;8.478;2022-09-03T14:56:19;1.80;;;1.10;;
8526;SDS011;4301;48.362;8.478;2022-09-03T14:58:57;1.00;;;1.00;;
8526;SDS011;4301;48.362;8.478;2022-09-03T15:01:33;0.90;;;0.90;;
8526;SDS011;4301;48.362;8.478;2022-09-03T15:07:15;1.00;;;1.00;;
8526;SDS011;4301;48.362;8.478;2022-09-03T15:09:53;0.95;;;0.95;;
8526;SDS011;4301;48.362;8.478;2022-09-03T15:12:29;1.00;;;1.00;;
8526;SDS011;4301;48.362;8.478;2022-09-03T15:15:04;1.10;;;1.10;;
8526;SDS011;4301;48.362;8.478;2022-09-03T15:17:44;1.10;;;1.05;;
8526;SDS011;4301;48.362;8.478;2022-09-03T15:20:23;0.93;;;0.93;;
8526;SDS011;4301;48.362;8.478;2022-09-03T15:23:11;1.00;;;1.00;;
8526;SDS011;4301;48.362;8.478;2022-09-03T15:26:04;0.80;;;0.80;;
8526;SDS011;4301;48.362;8.478;2022-09-03T15:28:53;2.58;;;0.90;;
8526;SDS011;4301;48.362;8.478;2022-09-03T15:31:41;0.80;;;0.80;;
8526;SDS011;4301;48.362;8.478;2022-09-03T15:34:21;0.88;;;0.88;;
8526;SDS011;4301;48.362;8.478;2022-09-03T15:37:07;1.02;;;0.95;;
8526;SDS011;4301;48.362;8.478;2022-09-03T15:39:38;0.70;;;0.70;;
8526;SDS011;4301;48.362;8.478;2022-09-03T15:42:13;0.80;;;0.80;;
8526;SDS011;4301;48.362;8.478;2022-09-03T15:44:53;0.80;;;0.80;;
8526;SDS011;4301;48.362;8.478;2022-09-03T15:47:29;0.80;;;0.80;;
8526;SDS011;4301;48.362;8.478;2022-09-03T15:50:12;0.80;;;0.80;;
8526;SDS011;4301;48.362;8.478;2022-09-03T15:52:53;1.02;;;0.85;;
8526;SDS011;4301;48.362;8.478;2022-09-03T15:55:29;0.90;;;0.90;;